Nearby METAR Reports

 

KHQM - Hoquiam,WA, USA
Updated: 05/30/2020 7:47pm
unable to load KHQM data RC=
unable to load KHQM data RC=
 
KAST - Astoria,OR, USA
Updated: 05/30/2020 6:55pm
Overcast
Overcast
 Wind from W
Wind: W 10 mph , 17 km/h
Temperature: 54°F , 12°C
Dew Point: 50°F , 10°C
Humidity: 88%
Barometer: 29.96 inHg , 1014.6 hPa
Clouds: Overcast
Visibility: 10 miles , 16 km
Cloud details: Few Clouds 2300 ft
Overcast 3400 ft
2020/05/31 01:55 KAST 310155Z AUTO 28009KT 10SM FEW023 OVC034 12/10 A2996 RMK AO2 RAB01E17 SLP144 P0000 T01170100